createdAt,value
2022-12-11T00:01:57.537Z,101316.13
2022-12-11T00:04:24.434Z,101309.97
2022-12-11T00:06:52.380Z,101315.00
2022-12-11T00:09:20.791Z,101309.97
2022-12-11T00:11:48.109Z,101301.19
2022-12-11T00:14:15.267Z,101309.81
2022-12-11T00:16:41.933Z,101311.41
2022-12-11T00:19:08.611Z,101307.84
2022-12-11T00:21:35.122Z,101309.47
2022-12-11T00:24:01.591Z,101313.03
2022-12-11T00:26:28.263Z,101320.66
2022-12-11T00:28:57.036Z,101309.47
2022-12-11T00:31:24.255Z,101303.47
2022-12-11T00:33:51.392Z,101310.44
2022-12-11T00:36:23.712Z,101313.84
2022-12-11T00:38:50.886Z,101313.69
2022-12-11T00:41:17.940Z,101313.69
2022-12-11T00:43:44.764Z,101308.34
2022-12-11T00:46:12.176Z,101303.13
2022-12-11T00:48:38.981Z,101303.94
2022-12-11T00:51:05.876Z,101297.63
2022-12-11T00:53:32.446Z,101293.22
2022-12-11T00:55:58.872Z,101290.47
2022-12-11T00:58:25.384Z,101292.09
2022-12-11T01:00:53.250Z,101294.53
2022-12-11T01:03:20.004Z,101285.75
2022-12-11T01:05:54.869Z,101284.94
2022-12-11T01:08:21.594Z,101288.34
2022-12-11T01:10:48.406Z,101286.56
2022-12-11T01:13:14.932Z,101282.19
2022-12-11T01:15:44.256Z,101284.78
2022-12-11T01:18:15.591Z,101283.81
2022-12-11T01:20:43.096Z,101280.22
2022-12-11T01:23:12.497Z,101292.22
2022-12-11T01:25:39.546Z,101288.03
2022-12-11T01:28:06.628Z,101297.44
2022-12-11T01:30:33.668Z,101290.44
2022-12-11T01:33:00.887Z,101288.66
2022-12-11T01:35:28.055Z,101292.06
2022-12-11T01:37:54.606Z,101290.28
2022-12-11T01:40:21.877Z,101292.06
2022-12-11T01:42:48.404Z,101297.09
2022-12-11T01:45:30.191Z,101292.72
2022-12-11T01:48:09.492Z,101297.09
2022-12-11T01:50:50.682Z,101299.69
2022-12-11T01:53:21.139Z,101300.66
2022-12-11T01:55:50.278Z,101294.50
2022-12-11T01:58:18.439Z,101291.09
2022-12-11T02:00:45.243Z,101291.09
2022-12-11T02:03:12.626Z,101286.53
2022-12-11T02:05:39.425Z,101284.91
2022-12-11T02:08:07.694Z,101282.16
2022-12-11T02:10:51.974Z,101275.34
2022-12-11T02:13:31.440Z,101271.56
2022-12-11T02:16:08.029Z,101271.56
2022-12-11T02:18:58.456Z,101267.19
2022-12-11T02:21:45.226Z,101271.56
2022-12-11T02:24:27.163Z,101273.19
2022-12-11T02:27:14.820Z,101265.22
2022-12-11T02:29:47.370Z,101267.66
2022-12-11T02:32:19.565Z,101257.44
2022-12-11T02:35:06.366Z,101263.28
2022-12-11T02:37:37.415Z,101255.47
2022-12-11T02:40:07.794Z,101251.25
2022-12-11T02:42:36.889Z,101248.50
2022-12-11T02:45:06.603Z,101246.88
2022-12-11T02:47:33.781Z,101243.31
2022-12-11T02:50:03.497Z,101242.50
2022-12-11T02:52:32.677Z,101254.50
2022-12-11T02:55:01.229Z,101248.50
2022-12-11T02:57:36.322Z,101252.72
2022-12-11T03:00:04.704Z,101252.56
2022-12-11T03:02:31.465Z,101255.16
2022-12-11T03:04:59.489Z,101251.75
2022-12-11T03:07:34.024Z,101251.75
2022-12-11T03:10:00.629Z,101247.34
2022-12-11T03:12:34.323Z,101247.34
2022-12-11T03:15:03.459Z,101250.94
2022-12-11T03:17:44.244Z,101254.97
2022-12-11T03:20:25.886Z,101259.38
2022-12-11T03:23:33.366Z,101259.38
2022-12-11T03:26:05.940Z,101267.16
2022-12-11T03:28:45.559Z,101264.41
2022-12-11T03:31:19.765Z,101260.81
2022-12-11T03:33:50.703Z,101259.03
2022-12-11T03:36:30.418Z,101258.06
2022-12-11T03:39:01.981Z,101264.88
2022-12-11T03:41:32.184Z,101260.47
2022-12-11T03:43:59.070Z,101260.66
2022-12-11T03:46:33.358Z,101260.47
2022-12-11T03:49:05.554Z,101257.06
2022-12-11T03:51:33.230Z,101257.88
2022-12-11T03:54:00.115Z,101258.06
2022-12-11T03:56:29.989Z,101254.66
2022-12-11T03:58:56.416Z,101245.88
2022-12-11T04:01:23.096Z,101250.91
2022-12-11T04:03:49.603Z,101243.28
2022-12-11T04:06:16.132Z,101245.88
2022-12-11T04:08:42.746Z,101248.47
2022-12-11T04:11:28.980Z,101248.31
2022-12-11T04:14:14.126Z,101246.69
2022-12-11T04:16:40.565Z,101245.88
2022-12-11T04:19:25.558Z,101239.06
2022-12-11T04:22:10.527Z,101250.25
2022-12-11T04:24:37.021Z,101246.69
2022-12-11T04:27:03.635Z,101234.66
2022-12-11T04:29:30.193Z,101243.28
2022-12-11T04:31:56.678Z,101226.88
2022-12-11T04:34:23.430Z,101230.63
2022-12-11T04:36:50.473Z,101224.28
2022-12-11T04:39:17.280Z,101226.25
2022-12-11T04:41:44.058Z,101233.88
2022-12-11T04:44:10.597Z,101231.09
2022-12-11T04:46:37.093Z,101223.63
2022-12-11T04:49:03.659Z,101225.25
2022-12-11T04:51:30.069Z,101223.47
2022-12-11T04:53:57.730Z,101223.63
2022-12-11T04:56:24.333Z,101221.03
2022-12-11T04:58:50.793Z,101220.22
2022-12-11T05:01:20.658Z,101221.03
2022-12-11T05:03:47.681Z,101216.19
2022-12-11T05:06:14.535Z,101220.56
2022-12-11T05:08:42.606Z,101221.38
2022-12-11T05:11:11.694Z,101226.56
2022-12-11T05:13:38.740Z,101237.78
2022-12-11T05:16:07.311Z,101235.34
2022-12-11T05:18:34.192Z,101233.38
2022-12-11T05:21:06.945Z,101231.78
2022-12-11T05:23:34.196Z,101225.75
2022-12-11T05:26:04.102Z,101227.38
2022-12-11T05:28:34.132Z,101230.78
2022-12-11T05:31:22.759Z,101224.63
2022-12-11T05:33:50.546Z,101225.59
2022-12-11T05:36:20.760Z,101218.78
2022-12-11T05:38:47.504Z,101213.41
2022-12-11T05:41:17.217Z,101211.16
2022-12-11T05:43:44.381Z,101209.38
2022-12-11T05:46:14.221Z,101214.56
2022-12-11T05:48:42.570Z,101211.34
2022-12-11T05:51:10.181Z,101214.91
2022-12-11T05:53:37.963Z,101217.34
2022-12-11T05:56:11.606Z,101212.31
2022-12-11T05:58:38.323Z,101223.69
2022-12-11T06:01:14.189Z,101215.88
2022-12-11T06:03:40.726Z,101213.28
2022-12-11T06:06:07.496Z,101207.47
2022-12-11T06:08:34.716Z,101205.50
2022-12-11T06:11:01.881Z,101202.09
2022-12-11T06:13:28.389Z,101207.28
2022-12-11T06:15:54.871Z,101203.06
2022-12-11T06:18:21.679Z,101208.25
2022-12-11T06:20:48.286Z,101210.88
2022-12-11T06:23:14.886Z,101215.88
2022-12-11T06:25:41.596Z,101215.88
2022-12-11T06:28:08.226Z,101215.06
2022-12-11T06:30:37.637Z,101210.06
2022-12-11T06:33:06.323Z,101211.84
2022-12-11T06:35:35.124Z,101212.03
2022-12-11T06:38:06.697Z,101212.03
2022-12-11T06:40:33.133Z,101218.22
2022-12-11T06:42:59.781Z,101214.00
2022-12-11T06:45:26.247Z,101214.00
2022-12-11T06:47:52.825Z,101216.41
2022-12-11T06:50:19.267Z,101227.78
2022-12-11T06:52:45.716Z,101232.00
2022-12-11T06:55:12.555Z,101231.19
2022-12-11T06:57:39.205Z,101228.75
2022-12-11T07:00:06.417Z,101227.78
2022-12-11T07:02:32.943Z,101237.38
2022-12-11T07:04:59.515Z,101232.16
2022-12-11T07:07:26.062Z,101237.38
2022-12-11T07:09:52.709Z,101228.75
2022-12-11T07:12:19.163Z,101233.97
2022-12-11T07:14:45.747Z,101234.13
2022-12-11T07:17:12.531Z,101241.09
2022-12-11T07:19:39.144Z,101241.09
2022-12-11T07:22:05.894Z,101239.31
2022-12-11T07:24:32.525Z,101233.97
2022-12-11T07:26:59.779Z,101235.75
2022-12-11T07:29:26.260Z,101239.31
2022-12-11T07:31:52.941Z,101240.78
2022-12-11T07:34:19.485Z,101237.38
2022-12-11T07:36:46.242Z,101242.91
2022-12-11T07:39:12.889Z,101246.31
2022-12-11T07:41:39.800Z,101238.69
2022-12-11T07:44:06.335Z,101241.09
2022-12-11T07:46:33.900Z,101243.88
2022-12-11T07:49:03.556Z,101252.63
2022-12-11T07:51:32.914Z,101242.25
2022-12-11T07:54:07.247Z,101246.47
2022-12-11T07:56:34.561Z,101245.81
2022-12-11T07:59:02.994Z,101250.38
2022-12-11T08:01:31.606Z,101252.00
2022-12-11T08:03:58.213Z,101257.03
2022-12-11T08:06:28.011Z,101254.59
2022-12-11T08:08:55.915Z,101252.00
2022-12-11T08:11:23.053Z,101249.56
2022-12-11T08:13:49.870Z,101261.56
2022-12-11T08:16:17.282Z,101258.34
2022-12-11T08:18:45.326Z,101260.94
2022-12-11T08:21:18.685Z,101252.50
2022-12-11T08:23:45.674Z,101257.53
2022-12-11T08:26:18.123Z,101256.88
2022-12-11T08:28:44.668Z,101254.13
2022-12-11T08:31:12.646Z,101261.91
2022-12-11T08:33:39.941Z,101245.53
2022-12-11T08:36:08.552Z,101254.94
2022-12-11T08:38:35.523Z,101253.94
2022-12-11T08:41:13.483Z,101260.13
2022-12-11T08:43:40.978Z,101255.09
2022-12-11T08:46:08.681Z,101260.28
2022-12-11T08:48:36.780Z,101252.66
2022-12-11T08:51:05.785Z,101264.50
2022-12-11T08:53:33.058Z,101252.50
2022-12-11T08:56:08.830Z,101251.69
2022-12-11T08:58:35.829Z,101250.06
2022-12-11T09:01:23.974Z,101238.06
2022-12-11T09:03:52.311Z,101239.03
2022-12-11T09:06:21.473Z,101242.63
2022-12-11T09:08:52.641Z,101239.69
2022-12-11T09:11:29.170Z,101236.59
2022-12-11T09:13:55.617Z,101232.03
2022-12-11T09:16:24.156Z,101226.69
2022-12-11T09:18:52.596Z,101232.97
2022-12-11T09:21:22.493Z,101225.28
2022-12-11T09:23:50.207Z,101230.16
2022-12-11T09:26:18.497Z,101233.88
2022-12-11T09:28:46.973Z,101227.19
2022-12-11T09:31:15.154Z,101222.44
2022-12-11T09:33:41.636Z,101226.16
2022-12-11T09:36:08.801Z,101217.03
2022-12-11T09:38:36.537Z,101223.84
2022-12-11T09:41:23.130Z,101222.06
2022-12-11T09:44:16.324Z,101226.28
2022-12-11T09:46:43.602Z,101227.53
2022-12-11T09:49:39.872Z,101219.22
2022-12-11T09:52:46.815Z,101224.53
2022-12-11T09:55:20.485Z,101222.41
2022-12-11T09:57:46.920Z,101213.47
2022-12-11T10:00:16.206Z,101218.78
2022-12-11T10:03:07.507Z,101224.09
2022-12-11T10:05:46.168Z,101215.09
2022-12-11T10:08:40.453Z,101216.38
2022-12-11T10:11:44.469Z,101221.88
2022-12-11T10:14:32.494Z,101219.56
2022-12-11T10:17:19.484Z,101221.16
2022-12-11T10:19:46.800Z,101217.25
2022-12-11T10:22:24.491Z,101222.31
2022-12-11T10:25:13.979Z,101215.16
2022-12-11T10:27:41.417Z,101215.28
2022-12-11T10:30:21.337Z,101216.88
2022-12-11T10:33:02.889Z,101216.19
2022-12-11T10:35:35.408Z,101214.91
2022-12-11T10:38:31.154Z,101214.41
2022-12-11T10:41:01.219Z,101214.56
2022-12-11T10:43:35.882Z,101208.56
2022-12-11T10:46:05.106Z,101209.38
2022-12-11T10:48:31.588Z,101213.13
2022-12-11T10:51:04.574Z,101206.47
2022-12-11T10:53:34.456Z,101200.47
2022-12-11T10:56:02.100Z,101196.19
2022-12-11T10:58:33.947Z,101194.28
2022-12-11T11:01:07.813Z,101196.44
2022-12-11T11:03:36.649Z,101196.66
2022-12-11T11:06:16.273Z,101199.03
2022-12-11T11:08:49.110Z,101196.25
2022-12-11T11:11:21.658Z,101202.72
2022-12-11T11:13:48.454Z,101197.97
2022-12-11T11:16:19.039Z,101190.63
2022-12-11T11:18:56.014Z,101191.97
2022-12-11T11:21:25.772Z,101181.56
2022-12-11T11:23:54.072Z,101171.78
2022-12-11T11:26:22.993Z,101171.44
2022-12-11T11:28:53.953Z,101175.03
2022-12-11T11:31:23.060Z,101179.59
2022-12-11T11:33:56.947Z,101171.88
2022-12-11T11:36:29.616Z,101178.97
2022-12-11T11:38:59.010Z,101169.03
2022-12-11T11:41:31.800Z,101171.09
2022-12-11T11:44:03.320Z,101166.06
2022-12-11T11:46:48.677Z,101165.31
2022-12-11T11:49:24.084Z,101165.13
2022-12-11T11:52:28.979Z,101159.31
2022-12-11T11:55:10.101Z,101161.09
2022-12-11T11:57:48.865Z,101160.09
2022-12-11T12:00:20.728Z,101156.28
2022-12-11T12:02:55.854Z,101157.91
2022-12-11T12:05:42.183Z,101155.91
2022-12-11T12:08:31.153Z,101155.47
2022-12-11T12:11:05.457Z,101154.47
2022-12-11T12:13:52.349Z,101147.91
2022-12-11T12:16:54.082Z,101148.25
2022-12-11T12:19:26.773Z,101146.84
2022-12-11T12:21:54.735Z,101149.47
2022-12-11T12:24:37.265Z,101143.28
2022-12-11T12:27:51.468Z,101145.13
2022-12-11T12:30:21.978Z,101142.78
2022-12-11T12:33:07.021Z,101143.78
2022-12-11T12:35:38.749Z,101146.81
2022-12-11T12:38:17.773Z,101149.25
2022-12-11T12:41:14.329Z,101149.59
2022-12-11T12:43:57.329Z,101151.84
2022-12-11T12:46:34.237Z,101148.06
2022-12-11T12:49:02.709Z,101141.72
2022-12-11T12:51:30.851Z,101138.13
2022-12-11T12:54:05.573Z,101137.66
2022-12-11T12:56:38.126Z,101137.59
2022-12-11T12:59:04.585Z,101138.75
2022-12-11T13:01:31.626Z,101136.50
2022-12-11T13:04:02.215Z,101134.88
2022-12-11T13:06:32.956Z,101139.47
2022-12-11T13:09:16.160Z,101136.25
2022-12-11T13:11:43.653Z,101139.06
2022-12-11T13:14:16.443Z,101144.25
2022-12-11T13:16:45.035Z,101144.63
2022-12-11T13:19:30.757Z,101141.38
2022-12-11T13:22:06.405Z,101146.75
2022-12-11T13:24:33.938Z,101146.94
2022-12-11T13:27:12.175Z,101143.09
2022-12-11T13:29:41.370Z,101140.31
2022-12-11T13:32:07.842Z,101148.91
2022-12-11T13:34:37.729Z,101153.13
2022-12-11T13:37:06.200Z,101152.16
2022-12-11T13:39:35.459Z,101153.66
2022-12-11T13:42:07.649Z,101152.06
2022-12-11T13:44:39.477Z,101150.63
2022-12-11T13:47:11.800Z,101160.03
2022-12-11T13:49:42.420Z,101153.03
2022-12-11T13:52:18.885Z,101154.03
2022-12-11T13:54:54.328Z,101149.81
2022-12-11T13:57:23.372Z,101149.00
2022-12-11T13:59:55.872Z,101150.16
2022-12-11T14:02:33.815Z,101158.50
2022-12-11T14:05:09.757Z,101156.25
2022-12-11T14:07:54.982Z,101154.81
2022-12-11T14:10:23.353Z,101156.19
2022-12-11T14:13:21.084Z,101164.97
2022-12-11T14:15:47.765Z,101163.53
2022-12-11T14:18:24.050Z,101161.91
2022-12-11T14:20:59.070Z,101160.13
2022-12-11T14:23:28.177Z,101168.09
2022-12-11T14:25:54.848Z,101167.28
2022-12-11T14:28:23.316Z,101163.09
2022-12-11T14:30:51.956Z,101166.03
2022-12-11T14:33:23.100Z,101160.38
2022-12-11T14:35:52.647Z,101153.56
2022-12-11T14:38:44.477Z,101162.34
2022-12-11T14:41:21.532Z,101165.13
2022-12-11T14:43:59.095Z,101167.91
2022-12-11T14:46:40.177Z,101158.66
2022-12-11T14:49:18.009Z,101158.66
2022-12-11T14:51:45.141Z,101149.41
2022-12-11T14:54:22.673Z,101154.59
2022-12-11T14:56:49.487Z,101164.56
2022-12-11T14:59:28.317Z,101162.75
2022-12-11T15:02:04.363Z,101160.50
2022-12-11T15:04:33.249Z,101166.69
2022-12-11T15:07:00.420Z,101162.50
2022-12-11T15:09:36.801Z,101169.28
2022-12-11T15:12:09.488Z,101175.50
2022-12-11T15:14:36.649Z,101178.09
2022-12-11T15:17:03.329Z,101175.69
2022-12-11T15:19:32.573Z,101172.28
2022-12-11T15:22:08.531Z,101172.63
2022-12-11T15:24:43.319Z,101177.00
2022-12-11T15:27:19.108Z,101177.19
2022-12-11T15:29:45.630Z,101177.19
2022-12-11T15:32:13.989Z,101172.00
2022-12-11T15:34:45.287Z,101180.13
2022-12-11T15:37:32.097Z,101176.72
2022-12-11T15:40:01.752Z,101177.88
2022-12-11T15:42:36.514Z,101182.25
2022-12-11T15:45:06.769Z,101177.59
2022-12-11T15:47:33.287Z,101184.41
2022-12-11T15:50:03.390Z,101193.81
2022-12-11T15:52:29.923Z,101199.03
2022-12-11T15:54:56.375Z,101193.81
2022-12-11T15:57:24.651Z,101191.22
2022-12-11T15:59:54.244Z,101199.03
2022-12-11T16:02:21.328Z,101199.19
2022-12-11T16:04:47.841Z,101189.94
2022-12-11T16:07:21.298Z,101196.13
2022-12-11T16:09:48.094Z,101190.28
2022-12-11T16:12:15.283Z,101197.28
2022-12-11T16:14:42.683Z,101192.72
2022-12-11T16:17:11.039Z,101195.16
2022-12-11T16:19:37.613Z,101192.53
2022-12-11T16:22:05.281Z,101194.34
2022-12-11T16:24:33.009Z,101190.28
2022-12-11T16:26:59.561Z,101193.06
2022-12-11T16:29:26.469Z,101196.47
2022-12-11T16:31:52.948Z,101185.25
2022-12-11T16:34:19.396Z,101194.03
2022-12-11T16:36:45.889Z,101187.06
2022-12-11T16:39:13.600Z,101188.50
2022-12-11T16:41:40.099Z,101187.06
2022-12-11T16:44:06.722Z,101184.81
2022-12-11T16:46:33.815Z,101183.81
2022-12-11T16:49:00.416Z,101190.63
2022-12-11T16:51:27.004Z,101184.47
2022-12-11T16:53:53.610Z,101183.66
2022-12-11T16:56:20.191Z,101185.44
2022-12-11T16:58:47.619Z,101189.66
2022-12-11T17:01:15.074Z,101180.88
2022-12-11T17:03:43.149Z,101177.66
2022-12-11T17:06:12.136Z,101180.25
2022-12-11T17:08:39.290Z,101186.25
2022-12-11T17:11:07.768Z,101183.81
2022-12-11T17:13:36.310Z,101181.41
2022-12-11T17:16:08.195Z,101183.19
2022-12-11T17:18:35.092Z,101178.78
2022-12-11T17:21:15.702Z,101179.59
2022-12-11T17:23:43.165Z,101176.03
2022-12-11T17:26:09.867Z,101181.22
2022-12-11T17:28:38.091Z,101188.03
2022-12-11T17:31:10.079Z,101179.59
2022-12-11T17:33:36.696Z,101178.78
2022-12-11T17:36:05.686Z,101193.56
2022-12-11T17:38:32.193Z,101192.78
2022-12-11T17:40:58.769Z,101185.78
2022-12-11T17:43:25.400Z,101182.38
2022-12-11T17:45:55.335Z,101188.72
2022-12-11T17:48:22.811Z,101189.38
2022-12-11T17:50:51.072Z,101185.16
2022-12-11T17:53:19.452Z,101188.72
2022-12-11T17:55:47.037Z,101186.13
2022-12-11T17:58:19.088Z,101191.31
2022-12-11T18:00:47.272Z,101186.13
2022-12-11T18:03:14.208Z,101194.72
2022-12-11T18:05:45.910Z,101195.88
2022-12-11T18:08:16.901Z,101191.50
2022-12-11T18:10:44.510Z,101193.13
2022-12-11T18:13:11.917Z,101188.09
2022-12-11T18:15:39.280Z,101196.69
2022-12-11T18:18:07.070Z,101196.09
2022-12-11T18:20:35.302Z,101203.06
2022-12-11T18:23:02.409Z,101198.84
2022-12-11T18:25:28.999Z,101206.66
2022-12-11T18:27:55.729Z,101196.59
2022-12-11T18:30:24.228Z,101202.94
2022-12-11T18:32:50.904Z,101202.13
2022-12-11T18:35:17.431Z,101198.56
2022-12-11T18:37:44.059Z,101202.13
2022-12-11T18:40:12.136Z,101203.13
2022-12-11T18:42:38.933Z,101204.09
2022-12-11T18:45:07.002Z,101204.09
2022-12-11T18:47:33.573Z,101204.91
2022-12-11T18:50:04.109Z,101205.06
2022-12-11T18:52:34.190Z,101206.06
2022-12-11T18:55:00.868Z,101207.38
2022-12-11T18:57:27.436Z,101209.50
2022-12-11T18:59:54.027Z,101204.47
2022-12-11T19:02:20.915Z,101205.47
2022-12-11T19:04:47.915Z,101203.03
2022-12-11T19:07:14.596Z,101203.84
2022-12-11T19:09:46.261Z,101202.22
2022-12-11T19:12:14.684Z,101201.41
2022-12-11T19:14:41.227Z,101200.59
2022-12-11T19:17:07.902Z,101197.19
2022-12-11T19:19:34.679Z,101202.56
2022-12-11T19:22:01.414Z,101199.31
2022-12-11T19:24:28.196Z,101202.91
2022-12-11T19:26:54.615Z,101196.91
2022-12-11T19:29:34.047Z,101206.31
2022-12-11T19:32:04.623Z,101200.47
2022-12-11T19:34:31.463Z,101198.03
2022-12-11T19:36:58.088Z,101197.28
2022-12-11T19:39:25.028Z,101200.03
2022-12-11T19:41:51.442Z,101204.41
2022-12-11T19:44:18.078Z,101203.44
2022-12-11T19:46:44.725Z,101202.00
2022-12-11T19:49:11.888Z,101205.56
2022-12-11T19:51:40.269Z,101205.56
2022-12-11T19:54:08.963Z,101203.94
2022-12-11T19:56:35.708Z,101201.50
2022-12-11T19:59:05.262Z,101211.09
2022-12-11T20:01:33.767Z,101208.66
2022-12-11T20:04:07.771Z,101208.66
2022-12-11T20:06:36.262Z,101212.41
2022-12-11T20:09:06.064Z,101209.97
2022-12-11T20:11:33.446Z,101211.94
2022-12-11T20:14:00.424Z,101215.19
2022-12-11T20:16:46.395Z,101207.25
2022-12-11T20:19:13.664Z,101217.28
2022-12-11T20:21:40.314Z,101210.97
2022-12-11T20:24:07.116Z,101213.38
2022-12-11T20:26:36.392Z,101215.81
2022-12-11T20:29:05.356Z,101221.81
2022-12-11T20:31:33.084Z,101213.38
2022-12-11T20:33:59.832Z,101217.78
2022-12-11T20:36:26.726Z,101219.56
2022-12-11T20:38:53.362Z,101220.06
2022-12-11T20:41:23.354Z,101223.47
2022-12-11T20:43:50.694Z,101217.28
2022-12-11T20:46:18.545Z,101220.06
2022-12-11T20:48:46.206Z,101215.69
2022-12-11T20:51:14.705Z,101216.66
2022-12-11T20:53:42.415Z,101213.41
2022-12-11T20:56:18.380Z,101220.56
2022-12-11T20:58:45.552Z,101218.31
2022-12-11T21:01:16.747Z,101217.16
2022-12-11T21:03:43.900Z,101227.38
2022-12-11T21:06:21.446Z,101223.00
2022-12-11T21:08:48.555Z,101226.41
2022-12-11T21:11:15.152Z,101226.41
2022-12-11T21:13:41.863Z,101220.41
2022-12-11T21:16:09.054Z,101223.16
2022-12-11T21:18:36.443Z,101227.22
2022-12-11T21:21:03.651Z,101232.56
2022-12-11T21:23:30.170Z,101235.81
2022-12-11T21:25:56.716Z,101225.75
2022-12-11T21:28:23.289Z,101228.19
2022-12-11T21:30:49.897Z,101223.97
2022-12-11T21:33:16.557Z,101216.00
2022-12-11T21:35:43.436Z,101219.75
2022-12-11T21:38:10.037Z,101219.75
2022-12-11T21:40:36.680Z,101217.97
2022-12-11T21:43:03.535Z,101222.19
2022-12-11T21:48:16.913Z,101225.09
2022-12-11T21:50:43.450Z,101224.31
2022-12-11T21:53:10.072Z,101224.31
2022-12-11T21:55:40.353Z,101225.09
2022-12-11T21:58:06.961Z,101229.31
2022-12-11T22:00:35.958Z,101233.53
2022-12-11T22:03:02.603Z,101232.72
2022-12-11T22:05:29.073Z,101235.50
2022-12-11T22:07:55.601Z,101243.28
2022-12-11T22:10:22.161Z,101242.31
2022-12-11T22:12:48.658Z,101241.03
2022-12-11T22:15:15.319Z,101248.47
2022-12-11T22:17:41.824Z,101239.06
2022-12-11T22:20:09.299Z,101236.31
2022-12-11T22:22:35.811Z,101237.44
2022-12-11T22:25:03.698Z,101245.88
2022-12-11T22:27:30.215Z,101245.88
2022-12-11T22:29:56.720Z,101242.63
2022-12-11T22:32:23.397Z,101236.16
2022-12-11T22:34:49.893Z,101245.09
2022-12-11T22:37:16.392Z,101245.09
2022-12-11T22:39:42.879Z,101251.91
2022-12-11T22:42:09.417Z,101250.28
2022-12-11T22:44:35.892Z,101251.28
2022-12-11T22:47:02.433Z,101251.28
2022-12-11T22:49:28.950Z,101248.84
2022-12-11T22:51:57.298Z,101257.63
2022-12-11T22:54:24.166Z,101260.38
2022-12-11T22:56:50.590Z,101256.00
2022-12-11T22:59:17.073Z,101254.22
2022-12-11T23:01:43.689Z,101256.81
2022-12-11T23:04:10.313Z,101249.19
2022-12-11T23:06:37.367Z,101251.78
2022-12-11T23:09:03.996Z,101249.03
2022-12-11T23:11:34.931Z,101250.16
2022-12-11T23:14:02.101Z,101256.31
2022-12-11T23:16:28.769Z,101266.72
2022-12-11T23:18:56.909Z,101250.50
2022-12-11T23:21:25.095Z,101246.94
2022-12-11T23:23:51.860Z,101251.31
2022-12-11T23:26:19.221Z,101251.94
2022-12-11T23:28:46.793Z,101251.78
2022-12-11T23:31:14.447Z,101256.97
2022-12-11T23:33:41.134Z,101257.63
2022-12-11T23:36:08.262Z,101254.22
2022-12-11T23:38:35.250Z,101254.53
2022-12-11T23:41:02.752Z,101244.16
2022-12-11T23:43:29.772Z,101255.69
2022-12-11T23:45:56.378Z,101261.84
2022-12-11T23:48:22.928Z,101256.00
2022-12-11T23:50:49.387Z,101255.22
2022-12-11T23:53:15.857Z,101253.41
2022-12-11T23:55:44.572Z,101249.69
2022-12-11T23:58:11.839Z,101253.09
